Time;durP1;ratioP1;P1;durP2;ratioP2;P2;SDS_P1;SDS_P2;PMS_P1;PMS_P2;Temp;Humidity;BMP_temperature;BMP_pressure;BME280_temperature;BME280_humidity;BME280_pressure;Samples;Min_cycle;Max_cycle;Signal;HPM_P1;HPM_P2
2021/06/21 00:01:12;;;;;;;25.33;22.65;;;22.90;64.30;;;;;;4958645;29;20196;-80
2021/06/21 00:03:38;;;;;;;25.58;22.88;;;22.90;63.50;;;;;;4958439;29;20168;-80
2021/06/21 00:06:04;;;;;;;26.20;23.40;;;22.90;63.60;;;;;;4958314;29;20197;-80
2021/06/21 00:08:30;;;;;;;25.48;22.80;;;22.90;63.60;;;;;;4957113;28;20240;-80
2021/06/21 00:10:55;;;;;;;25.13;22.55;;;22.90;63.60;;;;;;4943758;29;20161;-80
2021/06/21 00:13:21;;;;;;;25.58;22.90;;;22.90;63.60;;;;;;4961198;28;20256;-80
2021/06/21 00:15:52;;;;;;;25.85;23.20;;;22.90;63.60;;;;;;4959627;29;20169;-79
2021/06/21 00:18:20;;;;;;;26.08;23.35;;;22.90;63.60;;;;;;4927114;29;20189;-80
2021/06/21 00:20:51;;;;;;;25.85;23.15;;;22.90;63.70;;;;;;4926664;29;20185;-80
2021/06/21 00:23:19;;;;;;;25.52;22.85;;;22.90;63.70;;;;;;4927262;29;20185;-80
2021/06/21 00:25:48;;;;;;;26.15;23.42;;;22.90;63.70;;;;;;4911060;29;20209;-79
2021/06/21 00:28:17;;;;;;;27.73;24.83;;;22.90;63.80;;;;;;4910922;29;20265;-80
2021/06/21 00:30:45;;;;;;;26.00;23.20;;;22.90;63.80;;;;;;4926772;29;20191;-80
2021/06/21 00:33:11;;;;;;;25.45;22.75;;;22.80;63.80;;;;;;4926834;29;20192;-80
2021/06/21 00:35:38;;;;;;;26.60;23.77;;;22.80;63.70;;;;;;4959288;29;20625;-80
2021/06/21 00:38:05;;;;;;;26.30;23.42;;;22.90;63.80;;;;;;4959777;29;20513;-79
2021/06/21 00:40:32;;;;;;;25.15;22.52;;;22.80;63.70;;;;;;4959817;29;20235;-80
2021/06/21 00:42:58;;;;;;;25.63;22.92;;;22.80;63.80;;;;;;4958866;29;20173;-80
2021/06/21 00:45:23;;;;;;;25.30;22.70;;;22.80;63.80;;;;;;4943493;29;20194;-80
2021/06/21 00:47:50;;;;;;;26.27;23.45;;;22.80;63.80;;;;;;4959525;29;20175;-79
2021/06/21 00:50:16;;;;;;;25.00;22.33;;;22.80;63.90;;;;;;4961206;28;20158;-79
2021/06/21 00:52:42;;;;;;;25.83;23.15;;;22.80;63.80;;;;;;4958757;29;20162;-80
2021/06/21 00:55:12;;;;;;;26.33;23.58;;;22.80;63.80;;;;;;4960165;28;20248;-79
2021/06/21 00:57:40;;;;;;;23.90;21.45;;;22.80;63.90;;;;;;4926760;29;20264;-80
2021/06/21 01:00:11;;;;;;;25.73;23.02;;;22.80;64.00;;;;;;4910469;29;20190;-80
2021/06/21 01:02:39;;;;;;;25.27;22.67;;;22.80;64.00;;;;;;4942767;29;20185;-79
2021/06/21 01:05:13;;;;;;;25.52;22.92;;;22.80;64.00;;;;;;4926184;29;20576;-80
2021/06/21 01:07:41;;;;;;;26.30;23.50;;;22.80;64.00;;;;;;4896523;29;20221;-80
2021/06/21 01:10:09;;;;;;;25.58;22.88;;;22.80;64.10;;;;;;4910491;29;20192;-80
2021/06/21 01:13:01;;;;;;;26.55;23.75;;;22.80;64.10;;;;;;4910765;29;20189;-80
2021/06/21 01:15:31;;;;;;;26.42;23.60;;;22.80;64.10;;;;;;4931907;29;20189;-80
2021/06/21 01:18:10;;;;;;;26.88;24.05;;;22.80;64.00;;;;;;4926188;29;20327;-79
2021/06/21 01:20:55;;;;;;;25.77;23.08;;;22.80;64.10;;;;;;4928381;29;20652;-80
2021/06/21 01:23:59;;;;;;;26.90;24.02;;;22.80;64.10;;;;;;4959507;28;20158;-80
2021/06/21 01:26:55;;;;;;;26.27;23.58;;;22.70;64.10;;;;;;4959796;28;20216;-80
2021/06/21 01:29:49;;;;;;;26.17;23.48;;;22.80;64.10;;;;;;4941542;29;20292;-80
2021/06/21 01:32:41;;;;;;;26.10;23.35;;;22.80;64.00;;;;;;4929365;29;20188;-80
2021/06/21 01:35:07;;;;;;;27.08;24.17;;;22.80;64.80;;;;;;4945891;29;20165;-80
2021/06/21 01:37:33;;;;;;;26.98;24.08;;;22.80;64.00;;;;;;4958341;29;20158;-79
2021/06/21 01:39:58;;;;;;;25.73;23.02;;;22.80;64.00;;;;;;4959075;29;20156;-80
2021/06/21 01:42:25;;;;;;;27.05;24.25;;;22.70;64.00;;;;;;4957783;29;20506;-80
2021/06/21 01:45:03;;;;;;;27.48;24.58;;;22.80;64.10;;;;;;4957698;29;20158;-80
2021/06/21 01:47:30;;;;;;;26.45;23.65;;;22.70;64.20;;;;;;4958032;29;20570;-80
2021/06/21 01:49:57;;;;;;;26.90;24.05;;;22.80;64.10;;;;;;4957583;29;20162;-79
2021/06/21 01:52:24;;;;;;;26.50;23.70;;;22.70;64.00;;;;;;4909042;29;20208;-80
2021/06/21 01:54:53;;;;;;;25.65;22.98;;;22.80;64.00;;;;;;4893376;29;20287;-79
2021/06/21 01:57:23;;;;;;;27.73;24.77;;;22.80;64.00;;;;;;4925584;29;20181;-80
2021/06/21 01:59:50;;;;;;;26.08;23.27;;;22.80;64.10;;;;;;4925903;29;20181;-80
2021/06/21 02:02:17;;;;;;;25.88;23.20;;;22.80;64.20;;;;;;4957730;29;20625;-80
2021/06/21 02:04:43;;;;;;;26.83;24.05;;;22.80;64.30;;;;;;4957354;29;20166;-80
2021/06/21 02:07:08;;;;;;;26.58;23.77;;;22.70;64.20;;;;;;4958985;29;20200;-80
2021/06/21 02:09:34;;;;;;;25.75;23.15;;;22.70;64.30;;;;;;4959411;29;20521;-79
2021/06/21 02:12:00;;;;;;;26.45;23.58;;;22.70;64.30;;;;;;4958768;29;20150;-80
2021/06/21 02:14:27;;;;;;;26.83;23.92;;;22.70;64.30;;;;;;4958571;29;20161;-80
2021/06/21 02:16:54;;;;;;;26.42;23.73;;;22.70;64.30;;;;;;4959041;28;20524;-80
2021/06/21 02:19:22;;;;;;;26.75;23.85;;;22.70;64.30;;;;;;4957353;29;20213;-79
2021/06/21 02:21:48;;;;;;;26.10;23.38;;;22.70;64.30;;;;;;4959037;28;20655;-80
2021/06/21 02:24:15;;;;;;;27.75;24.75;;;22.80;64.30;;;;;;4957250;29;20289;-80
2021/06/21 02:26:40;;;;;;;26.73;23.80;;;22.70;64.30;;;;;;4958805;28;20185;-79
2021/06/21 02:29:07;;;;;;;26.65;23.55;;;22.70;64.30;;;;;;4957191;29;20165;-80
2021/06/21 02:31:32;;;;;;;26.67;23.92;;;22.70;64.30;;;;;;4957973;28;20161;-79
2021/06/21 02:33:58;;;;;;;26.42;23.60;;;22.70;64.40;;;;;;4958271;29;20164;-80
2021/06/21 02:36:24;;;;;;;26.25;23.52;;;22.70;64.40;;;;;;4940686;29;20512;-80
2021/06/21 02:38:51;;;;;;;26.38;23.58;;;22.70;64.30;;;;;;4958728;29;20638;-80
2021/06/21 02:41:17;;;;;;;26.52;23.73;;;22.70;64.40;;;;;;4958007;28;20160;-80
2021/06/21 02:43:42;;;;;;;24.70;22.10;;;22.60;64.30;;;;;;4956689;29;20165;-80
2021/06/21 02:46:08;;;;;;;26.83;24.02;;;22.60;64.40;;;;;;4958177;29;20189;-80
2021/06/21 02:48:34;;;;;;;26.58;23.85;;;22.60;64.40;;;;;;4941174;29;20544;-80
2021/06/21 02:51:00;;;;;;;26.70;23.90;;;22.70;64.50;;;;;;4958538;29;20184;-80
2021/06/21 02:53:48;;;;;;;26.13;23.35;;;22.70;64.50;;;;;;4958071;28;20161;-80
2021/06/21 02:56:36;;;;;;;26.38;23.63;;;22.60;64.40;;;;;;4929877;29;20231;-79
2021/06/21 02:59:07;;;;;;;26.73;23.83;;;22.70;64.50;;;;;;4958254;28;20192;-80
2021/06/21 03:01:37;;;;;;;25.58;22.92;;;22.60;64.40;;;;;;4909370;29;20540;-80
2021/06/21 03:04:05;;;;;;;26.55;23.75;;;22.60;64.40;;;;;;4908706;29;20184;-80
2021/06/21 03:06:36;;;;;;;25.65;22.95;;;22.70;64.50;;;;;;4924013;29;20213;-80
2021/06/21 03:09:06;;;;;;;24.88;22.27;;;22.70;64.50;;;;;;4892878;29;20605;-80
2021/06/21 03:11:34;;;;;;;25.95;23.25;;;22.70;64.50;;;;;;4923963;29;20188;-80
2021/06/21 03:14:02;;;;;;;27.88;24.25;;;22.70;64.60;;;;;;4908845;29;20260;-80
2021/06/21 03:16:30;;;;;;;26.63;23.80;;;22.60;64.50;;;;;;4923998;29;20268;-80
2021/06/21 03:18:58;;;;;;;26.38;23.58;;;22.60;64.50;;;;;;4924191;29;20652;-81
2021/06/21 03:21:25;;;;;;;25.25;22.60;;;22.60;64.50;;;;;;4908104;29;20240;-80
2021/06/21 03:23:54;;;;;;;27.38;24.50;;;22.60;64.50;;;;;;4908045;29;20197;-80
2021/06/21 03:26:29;;;;;;;26.52;23.70;;;22.60;64.60;;;;;;4923752;29;20228;-80
2021/06/21 03:28:55;;;;;;;26.80;24.00;;;22.70;64.70;;;;;;4955922;29;20169;-80
2021/06/21 03:31:21;;;;;;;26.40;23.60;;;22.70;64.60;;;;;;4956162;29;20644;-80
2021/06/21 03:33:48;;;;;;;26.50;23.70;;;22.60;64.70;;;;;;4924210;29;20179;-80
2021/06/21 03:36:14;;;;;;;27.88;24.08;;;22.60;64.70;;;;;;4955566;29;20161;-80
2021/06/21 03:38:39;;;;;;;27.23;24.30;;;22.60;64.70;;;;;;4939760;29;20181;-80
2021/06/21 03:41:06;;;;;;;26.90;24.05;;;22.60;64.70;;;;;;4957403;28;20158;-80
2021/06/21 03:43:33;;;;;;;27.38;24.42;;;22.60;64.80;;;;;;4958441;28;20170;-80
2021/06/21 03:46:00;;;;;;;27.58;24.63;;;22.60;64.80;;;;;;4946398;29;20628;-80
2021/06/21 03:48:29;;;;;;;26.75;23.85;;;22.60;64.70;;;;;;4945908;29;20153;-79
2021/06/21 03:50:57;;;;;;;26.58;23.70;;;22.60;64.70;;;;;;4930301;29;20241;-79
2021/06/21 03:53:26;;;;;;;25.40;22.80;;;22.60;64.80;;;;;;4914062;29;20603;-79
2021/06/21 03:55:54;;;;;;;26.02;23.35;;;22.50;64.80;;;;;;4929445;29;20196;-79
2021/06/21 03:58:20;;;;;;;26.90;24.10;;;22.60;64.90;;;;;;4960448;29;20204;-80
2021/06/21 04:00:46;;;;;;;26.30;23.52;;;22.60;64.80;;;;;;4961708;29;20613;-79
2021/06/21 04:03:12;;;;;;;26.33;23.52;;;22.60;64.80;;;;;;4961050;29;20169;-79
2021/06/21 04:05:39;;;;;;;26.77;23.95;;;22.60;64.80;;;;;;4927907;29;20668;-79
2021/06/21 04:08:07;;;;;;;25.58;22.88;;;22.60;64.70;;;;;;4944429;29;20609;-79
2021/06/21 04:10:33;;;;;;;26.65;23.77;;;22.60;64.70;;;;;;4959674;29;20181;-79
2021/06/21 04:13:00;;;;;;;25.00;22.40;;;22.70;64.70;;;;;;4961678;28;20172;-79
2021/06/21 04:15:30;;;;;;;25.33;22.73;;;22.70;65.10;;;;;;4961192;29;20278;-79
2021/06/21 04:17:57;;;;;;;24.80;22.30;;;22.90;64.50;;;;;;4944179;29;20184;-79
2021/06/21 04:20:23;;;;;;;26.27;23.58;;;22.90;64.50;;;;;;4959961;29;20559;-79
2021/06/21 04:22:49;;;;;;;25.80;23.10;;;22.90;63.90;;;;;;4959406;29;20623;-79
2021/06/21 04:25:15;;;;;;;24.95;22.15;;;22.90;64.10;;;;;;4957860;29;20676;-80
2021/06/21 04:27:42;;;;;;;25.83;23.15;;;22.90;64.70;;;;;;4942140;29;20763;-80
2021/06/21 04:30:11;;;;;;;24.25;21.75;;;23.00;64.20;;;;;;4909578;29;20197;-79
2021/06/21 04:32:38;;;;;;;24.42;21.92;;;23.00;64.70;;;;;;4925232;29;20544;-80
2021/06/21 04:35:08;;;;;;;23.02;20.55;;;23.10;64.60;;;;;;4925399;29;20192;-80
2021/06/21 04:37:35;;;;;;;24.75;22.25;;;23.10;64.20;;;;;;4925642;29;20281;-79
2021/06/21 04:40:03;;;;;;;25.63;22.92;;;23.20;63.90;;;;;;4925309;29;20181;-79
2021/06/21 04:42:30;;;;;;;24.38;21.85;;;23.10;63.60;;;;;;4909111;29;20185;-79
2021/06/21 04:44:56;;;;;;;24.75;22.25;;;23.10;63.60;;;;;;4924642;29;20192;-80
2021/06/21 04:47:24;;;;;;;24.30;21.85;;;23.10;63.70;;;;;;4958684;29;20169;-79
2021/06/21 04:49:52;;;;;;;23.05;20.65;;;23.20;64.10;;;;;;4957192;29;20154;-79
2021/06/21 04:52:19;;;;;;;25.02;22.42;;;23.30;63.90;;;;;;4958593;28;20232;-79
2021/06/21 04:54:47;;;;;;;23.40;21.00;;;23.20;63.50;;;;;;4957826;28;20146;-79
2021/06/21 04:57:13;;;;;;;25.15;22.58;;;23.20;63.80;;;;;;4958448;28;20169;-79
2021/06/21 04:59:39;;;;;;;23.98;21.48;;;23.20;63.60;;;;;;4957176;29;20165;-80
2021/06/21 05:02:04;;;;;;;23.30;20.90;;;23.20;63.90;;;;;;4957392;29;20165;-79
2021/06/21 05:04:30;;;;;;;25.23;22.63;;;23.30;63.90;;;;;;4958641;29;20245;-79
2021/06/21 05:06:56;;;;;;;24.30;21.80;;;23.30;63.00;;;;;;4958553;29;20193;-80
2021/06/21 05:09:22;;;;;;;25.05;22.45;;;23.20;63.50;;;;;;4958951;29;20169;-80
2021/06/21 05:11:49;;;;;;;24.42;21.92;;;23.20;63.90;;;;;;4956834;29;20204;-80
2021/06/21 05:14:18;;;;;;;23.80;21.38;;;23.20;63.60;;;;;;4958129;29;20165;-80
2021/06/21 05:16:47;;;;;;;25.52;22.77;;;23.20;64.40;;;;;;4924267;29;20264;-79
2021/06/21 05:19:16;;;;;;;22.98;20.60;;;23.20;63.60;;;;;;4893022;29;20648;-79
2021/06/21 05:21:42;;;;;;;24.52;22.02;;;23.20;64.10;;;;;;4908927;29;20628;-79
2021/06/21 05:24:10;;;;;;;24.13;21.63;;;23.20;63.90;;;;;;4943942;29;20170;-79
2021/06/21 05:26:35;;;;;;;23.70;21.30;;;23.20;63.60;;;;;;4905271;29;20209;-79
2021/06/21 05:29:03;;;;;;;25.10;22.50;;;23.20;64.00;;;;;;4939654;29;20618;-79
2021/06/21 05:31:29;;;;;;;23.80;21.40;;;23.10;63.60;;;;;;4920541;29;20209;-81
2021/06/21 05:33:57;;;;;;;24.73;22.15;;;23.10;64.10;;;;;;4938130;29;20618;-80
2021/06/21 05:36:24;;;;;;;24.45;21.95;;;23.10;63.70;;;;;;4904563;29;20190;-79
2021/06/21 05:38:50;;;;;;;23.48;21.08;;;23.10;64.10;;;;;;4936565;29;20249;-79
2021/06/21 05:41:16;;;;;;;23.60;21.15;;;23.10;64.30;;;;;;4936484;29;20300;-79
2021/06/21 05:43:42;;;;;;;23.23;20.83;;;23.20;64.10;;;;;;4936157;29;20559;-79
2021/06/21 05:46:08;;;;;;;23.80;21.40;;;23.20;64.00;;;;;;4938865;29;20691;-79
2021/06/21 05:48:34;;;;;;;22.98;20.58;;;23.30;63.60;;;;;;4940118;29;20241;-80
2021/06/21 05:51:01;;;;;;;23.25;20.85;;;23.20;63.60;;;;;;4940828;29;20162;-79
2021/06/21 05:53:29;;;;;;;24.50;22.00;;;23.20;64.00;;;;;;4941112;29;20154;-80
2021/06/21 05:55:55;;;;;;;22.50;20.20;;;23.20;63.80;;;;;;4924624;29;20174;-79
2021/06/21 05:58:21;;;;;;;23.48;21.08;;;23.20;64.30;;;;;;4940020;29;20173;-79
2021/06/21 06:00:48;;;;;;;23.55;21.05;;;23.20;64.00;;;;;;4941948;29;20525;-80
2021/06/21 06:03:14;;;;;;;24.60;22.00;;;23.30;63.90;;;;;;4940752;29;20652;-80
2021/06/21 06:05:40;;;;;;;22.13;19.85;;;23.30;63.80;;;;;;4940766;29;20269;-79
2021/06/21 06:08:05;;;;;;;22.55;20.23;;;23.30;64.90;;;;;;4949858;29;20564;-80
2021/06/21 06:10:31;;;;;;;22.08;19.80;;;23.30;64.10;;;;;;4961063;29;20237;-80
2021/06/21 06:12:57;;;;;;;23.70;21.30;;;23.30;63.80;;;;;;4960231;28;20154;-79
2021/06/21 06:15:23;;;;;;;22.95;20.58;;;23.30;63.10;;;;;;4986662;28;20168;-80
2021/06/21 06:17:50;;;;;;;24.38;21.80;;;23.30;63.50;;;;;;4955722;28;20193;-80
2021/06/21 06:20:16;;;;;;;23.90;21.30;;;23.20;64.00;;;;;;4987118;28;20208;-80
2021/06/21 06:22:42;;;;;;;21.90;19.70;;;23.20;64.10;;;;;;4986786;28;20596;-80
2021/06/21 06:25:08;;;;;;;23.55;21.15;;;23.10;64.50;;;;;;4970370;28;20168;-81
2021/06/21 06:27:34;;;;;;;23.17;20.85;;;23.10;64.20;;;;;;4953250;28;20700;-80
2021/06/21 06:29:59;;;;;;;22.67;20.38;;;23.10;64.80;;;;;;4937114;29;20174;-80
2021/06/21 06:32:25;;;;;;;23.73;21.23;;;23.10;65.00;;;;;;4936560;29;20166;-80
2021/06/21 06:34:51;;;;;;;23.10;20.80;;;23.10;64.60;;;;;;4936712;29;20166;-80
2021/06/21 06:37:16;;;;;;;23.35;20.95;;;23.10;65.10;;;;;;4949864;29;20533;-79
2021/06/21 06:39:42;;;;;;;24.10;21.60;;;23.10;65.10;;;;;;4972093;28;20633;-83
2021/06/21 06:42:08;;;;;;;25.05;21.90;;;23.10;64.50;;;;;;4987686;28;20544;-84
2021/06/21 06:44:37;;;;;;;22.52;20.13;;;23.20;64.40;;;;;;4970853;28;20533;-86
2021/06/21 06:47:04;;;;;;;23.50;21.00;;;23.10;64.50;;;;;;4970954;28;20205;-84
2021/06/21 06:49:32;;;;;;;22.17;19.80;;;23.10;64.60;;;;;;4954202;29;20171;-84
2021/06/21 06:51:59;;;;;;;23.15;20.73;;;23.20;64.80;;;;;;4986574;28;20160;-84
2021/06/21 06:54:34;;;;;;;22.70;20.33;;;23.20;64.50;;;;;;4988647;28;20240;-82
2021/06/21 06:57:00;;;;;;;22.98;20.60;;;23.20;64.50;;;;;;4987957;28;20177;-82
2021/06/21 06:59:31;;;;;;;21.48;19.27;;;23.20;64.60;;;;;;4971111;28;20197;-81
2021/06/21 07:01:58;;;;;;;22.15;19.85;;;23.20;65.30;;;;;;4987417;28;20259;-80
2021/06/21 07:04:24;;;;;;;22.20;19.98;;;23.30;65.00;;;;;;4990089;28;20236;-80
2021/06/21 07:06:50;;;;;;;23.17;20.73;;;23.30;64.40;;;;;;4956241;29;20208;-79
2021/06/21 07:09:16;;;;;;;22.63;20.27;;;23.20;64.40;;;;;;4972245;28;20169;-81
2021/06/21 07:11:42;;;;;;;22.40;20.08;;;23.20;64.80;;;;;;4972815;28;20260;-79
2021/06/21 07:14:08;;;;;;;22.98;20.60;;;23.20;64.80;;;;;;4959497;29;20259;-79
2021/06/21 07:16:35;;;;;;;23.10;20.70;;;23.20;65.00;;;;;;4962121;28;20270;-79
2021/06/21 07:19:01;;;;;;;20.83;18.63;;;23.30;64.90;;;;;;4964971;28;20176;-80
2021/06/21 07:21:27;;;;;;;22.02;19.83;;;23.30;65.40;;;;;;4964808;29;20166;-81
2021/06/21 07:23:53;;;;;;;21.85;19.65;;;23.30;64.90;;;;;;4996217;28;20175;-79
2021/06/21 07:26:20;;;;;;;21.92;19.65;;;23.30;64.90;;;;;;4962024;29;20212;-79
2021/06/21 07:28:46;;;;;;;21.70;19.50;;;23.30;64.40;;;;;;4963083;28;20225;-79
2021/06/21 07:31:14;;;;;;;22.23;19.90;;;23.30;64.30;;;;;;4963555;29;20166;-79
2021/06/21 07:33:40;;;;;;;21.60;19.40;;;23.40;64.40;;;;;;4963059;28;20157;-80
2021/06/21 07:36:07;;;;;;;21.98;19.48;;;23.30;64.50;;;;;;4997851;28;20293;-79
2021/06/21 07:38:32;;;;;;;22.08;19.77;;;23.30;64.80;;;;;;4963822;28;20736;-79
2021/06/21 07:40:59;;;;;;;20.95;18.75;;;23.30;65.20;;;;;;4980339;28;20204;-79
2021/06/21 07:43:28;;;;;;;22.00;19.60;;;23.30;65.30;;;;;;4981566;28;20551;-80
2021/06/21 07:45:54;;;;;;;22.92;19.88;;;23.30;64.90;;;;;;4997008;28;20556;-79
2021/06/21 07:48:20;;;;;;;28.60;20.52;;;23.30;65.60;;;;;;4981833;28;20169;-79
2021/06/21 07:50:46;;;;;;;26.38;18.90;;;23.30;64.90;;;;;;4948842;29;20177;-78
2021/06/21 07:53:12;;;;;;;29.50;19.20;;;23.30;65.40;;;;;;4948556;29;20180;-78
2021/06/21 07:55:37;;;;;;;35.90;18.85;;;23.40;65.00;;;;;;4965977;28;20304;-79
2021/06/21 07:58:03;;;;;;;35.78;18.65;;;23.40;64.80;;;;;;4961818;29;20170;-77
2021/06/21 08:00:29;;;;;;;44.97;20.88;;;23.30;64.60;;;;;;4948348;29;20620;-78
2021/06/21 08:02:55;;;;;;;44.63;19.83;;;23.40;64.50;;;;;;4947614;28;20173;-80
2021/06/21 08:05:29;;;;;;;36.05;20.00;;;23.40;64.70;;;;;;4956318;29;20230;-80
2021/06/21 08:07:55;;;;;;;30.50;19.23;;;23.40;64.30;;;;;;4965031;29;20193;-80
2021/06/21 08:10:25;;;;;;;33.28;19.48;;;23.40;64.10;;;;;;4967112;29;20185;-79
2021/06/21 08:12:55;;;;;;;29.20;20.17;;;23.40;64.30;;;;;;4934086;29;20182;-79
2021/06/21 08:15:25;;;;;;;22.75;17.85;;;23.50;64.10;;;;;;4949008;29;20272;-79
2021/06/21 08:17:56;;;;;;;27.20;18.90;;;23.50;64.30;;;;;;4963668;29;20185;-79
2021/06/21 08:20:24;;;;;;;28.17;18.65;;;23.40;64.40;;;;;;4964158;29;20182;-80
2021/06/21 08:22:55;;;;;;;27.75;18.63;;;23.40;64.60;;;;;;4947449;29;20244;-80
2021/06/21 08:25:23;;;;;;;30.13;19.88;;;23.50;64.50;;;;;;4966405;29;20667;-80
2021/06/21 08:27:49;;;;;;;22.67;17.00;;;23.50;64.30;;;;;;4996362;28;20237;-79
2021/06/21 08:30:16;;;;;;;27.13;18.88;;;23.60;63.40;;;;;;4996556;28;20174;-80
2021/06/21 08:32:42;;;;;;;17.60;13.82;;;23.50;63.50;;;;;;4974013;28;20169;-80
2021/06/21 08:35:09;;;;;;;27.05;19.42;;;23.70;62.10;;;;;;4984476;28;20574;-80
2021/06/21 08:37:36;;;;;;;26.63;18.23;;;23.60;63.20;;;;;;4983312;28;20216;-81
2021/06/21 08:40:04;;;;;;;20.73;15.40;;;23.70;63.20;;;;;;4984089;28;20164;-80
2021/06/21 08:42:30;;;;;;;30.42;19.00;;;23.60;62.70;;;;;;4983599;28;20173;-79
2021/06/21 08:45:01;;;;;;;24.67;19.33;;;23.70;62.90;;;;;;4983971;28;20172;-81
2021/06/21 08:47:29;;;;;;;22.10;17.33;;;23.60;64.30;;;;;;4951705;28;20529;-80
2021/06/21 08:50:00;;;;;;;25.52;18.55;;;23.70;63.30;;;;;;4951358;28;20268;-80
2021/06/21 08:52:25;;;;;;;26.90;18.17;;;23.70;63.70;;;;;;4935005;28;20256;-79
2021/06/21 08:55:06;;;;;;;31.90;16.73;;;23.60;63.90;;;;;;4973390;28;20201;-79
2021/06/21 08:57:43;;;;;;;32.58;17.13;;;23.80;62.90;;;;;;4961857;29;20260;-81
2021/06/21 09:00:10;;;;;;;26.67;18.23;;;23.80;62.80;;;;;;4947954;29;20185;-78
2021/06/21 09:02:40;;;;;;;33.25;18.30;;;23.80;63.00;;;;;;4968371;28;20169;-80
2021/06/21 09:05:07;;;;;;;33.70;18.17;;;23.80;62.90;;;;;;4984256;28;20601;-80
2021/06/21 09:07:33;;;;;;;29.77;16.73;;;23.90;62.50;;;;;;4969880;28;20158;-80
2021/06/21 09:10:01;;;;;;;28.52;18.10;;;23.90;62.00;;;;;;4969548;29;20168;-81
2021/06/21 09:12:32;;;;;;;37.97;19.13;;;23.80;62.70;;;;;;5000113;28;20156;-80
2021/06/21 09:14:59;;;;;;;32.50;18.25;;;23.80;62.70;;;;;;4951889;29;20192;-80
2021/06/21 09:17:26;;;;;;;34.53;17.38;;;23.90;62.70;;;;;;4984538;28;20505;-80
2021/06/21 09:19:59;;;;;;;34.38;18.92;;;23.90;62.70;;;;;;5000581;28;20192;-81
2021/06/21 09:22:30;;;;;;;35.47;19.65;;;23.80;62.80;;;;;;5000105;28;20162;-81
2021/06/21 09:24:59;;;;;;;37.55;18.77;;;23.90;62.90;;;;;;4969513;28;20252;-81
2021/06/21 09:27:26;;;;;;;31.63;18.35;;;23.90;62.90;;;;;;4998618;28;20221;-80
2021/06/21 09:29:52;;;;;;;33.03;17.73;;;23.70;63.00;;;;;;4967255;28;20154;-80
2021/06/21 09:32:19;;;;;;;31.73;17.63;;;23.90;62.80;;;;;;4968116;28;20150;-82
2021/06/21 09:34:45;;;;;;;26.80;17.38;;;23.90;62.80;;;;;;4949640;29;20189;-80
2021/06/21 09:37:17;;;;;;;35.97;19.00;;;23.80;63.00;;;;;;4997737;28;20161;-81
2021/06/21 09:39:45;;;;;;;28.10;18.45;;;23.90;63.20;;;;;;4952617;29;20247;-79
2021/06/21 09:42:20;;;;;;;24.60;17.83;;;23.90;62.80;;;;;;4964424;28;20184;-81
2021/06/21 09:45:00;;;;;;;33.00;18.52;;;23.90;63.00;;;;;;4961505;29;20247;-81
2021/06/21 09:47:35;;;;;;;25.75;16.88;;;23.90;63.00;;;;;;4964120;28;20733;-81
2021/06/21 09:50:19;;;;;;;34.40;18.77;;;23.90;62.70;;;;;;4962466;29;20267;-80
2021/06/21 09:52:50;;;;;;;28.67;16.73;;;23.90;62.80;;;;;;4964277;28;20233;-81
2021/06/21 09:55:34;;;;;;;29.13;17.35;;;23.90;62.70;;;;;;4964566;28;20150;-81
2021/06/21 09:58:12;;;;;;;29.30;17.83;;;23.90;62.70;;;;;;4949166;28;20725;-82
2021/06/21 10:00:45;;;;;;;27.73;18.50;;;23.90;62.80;;;;;;4943578;29;20237;-81
2021/06/21 10:03:18;;;;;;;29.45;17.70;;;23.90;62.80;;;;;;4943999;29;20162;-79
2021/06/21 10:06:00;;;;;;;23.58;17.30;;;23.90;62.70;;;;;;4911247;29;20768;-80
2021/06/21 10:08:42;;;;;;;28.75;18.58;;;23.90;62.50;;;;;;4914209;29;20189;-81
2021/06/21 10:11:36;;;;;;;31.98;17.63;;;24.00;62.50;;;;;;4942543;29;20174;-81
2021/06/21 10:14:13;;;;;;;31.50;18.63;;;24.00;62.50;;;;;;4940294;29;20186;-81
2021/06/21 10:16:44;;;;;;;26.75;18.48;;;23.90;62.70;;;;;;4911448;29;20241;-81
2021/06/21 10:19:14;;;;;;;25.52;17.00;;;23.90;63.30;;;;;;4906870;29;20221;-81
2021/06/21 10:21:46;;;;;;;25.17;17.55;;;23.80;63.00;;;;;;4905947;29;20189;-82
2021/06/21 10:24:17;;;;;;;24.00;16.42;;;23.90;63.10;;;;;;4922208;29;20209;-80
2021/06/21 10:26:49;;;;;;;23.58;17.60;;;24.00;62.80;;;;;;4922998;29;20241;-80
2021/06/21 10:29:19;;;;;;;31.63;17.95;;;23.90;63.30;;;;;;4937580;29;20661;-80
2021/06/21 10:31:49;;;;;;;21.75;15.75;;;23.90;63.30;;;;;;4904960;29;20182;-81
2021/06/21 10:34:19;;;;;;;27.30;17.40;;;24.00;62.90;;;;;;4904774;29;20577;-82
2021/06/21 10:36:51;;;;;;;24.45;17.42;;;24.10;62.50;;;;;;4920933;29;20190;-81
2021/06/21 10:39:28;;;;;;;24.88;17.13;;;24.10;62.30;;;;;;4905833;29;20221;-81
2021/06/21 10:42:14;;;;;;;26.00;16.90;;;24.00;62.40;;;;;;4919965;29;20197;-81
2021/06/21 10:44:55;;;;;;;23.33;16.25;;;24.10;62.30;;;;;;4937551;29;20170;-80
2021/06/21 10:47:30;;;;;;;23.85;16.65;;;24.10;62.40;;;;;;4957175;28;20217;-81
2021/06/21 10:50:04;;;;;;;21.60;16.15;;;24.10;62.10;;;;;;4908677;29;20192;-81
2021/06/21 10:52:47;;;;;;;24.10;16.70;;;24.20;61.80;;;;;;4924717;29;20185;-82
2021/06/21 10:55:35;;;;;;;21.27;15.13;;;24.10;61.80;;;;;;4957752;28;20232;-81
2021/06/21 10:58:25;;;;;;;20.10;16.33;;;24.20;61.50;;;;;;4956560;28;20165;-80
2021/06/21 11:00:53;;;;;;;25.40;16.33;;;24.30;61.70;;;;;;4955631;29;20169;-82
2021/06/21 11:03:39;;;;;;;20.13;14.43;;;24.20;62.00;;;;;;4923034;29;20192;-80
2021/06/21 11:06:21;;;;;;;21.20;16.13;;;24.30;62.00;;;;;;4919591;29;20226;-82
2021/06/21 11:08:51;;;;;;;18.95;16.42;;;24.20;62.20;;;;;;4891290;29;20189;-81
2021/06/21 11:11:35;;;;;;;22.00;16.73;;;24.10;62.20;;;;;;4936503;29;20213;-80
2021/06/21 11:14:11;;;;;;;21.40;15.65;;;24.20;62.10;;;;;;4937135;29;20209;-80
2021/06/21 11:16:40;;;;;;;17.80;15.48;;;24.20;61.80;;;;;;4936133;29;20253;-81
2021/06/21 11:19:23;;;;;;;22.77;17.05;;;24.30;61.80;;;;;;4936614;29;20146;-80
2021/06/21 11:21:53;;;;;;;18.45;16.27;;;24.30;61.60;;;;;;4948583;29;20157;-81
2021/06/21 11:24:46;;;;;;;20.45;15.77;;;24.30;61.60;;;;;;4954957;29;20541;-80
2021/06/21 11:27:15;;;;;;;19.27;15.98;;;24.30;61.70;;;;;;4955946;28;20369;-81
2021/06/21 11:29:44;;;;;;;18.15;15.70;;;24.20;61.60;;;;;;4954879;29;20534;-80
2021/06/21 11:32:12;;;;;;;20.95;16.08;;;24.30;61.70;;;;;;4956713;28;20637;-81
2021/06/21 11:34:54;;;;;;;19.80;14.93;;;24.30;61.70;;;;;;4956612;28;20470;-80
2021/06/21 11:37:35;;;;;;;21.85;16.42;;;24.30;61.80;;;;;;4955983;29;20166;-80
2021/06/21 11:40:22;;;;;;;19.92;15.77;;;24.30;62.20;;;;;;4953409;29;20193;-81
2021/06/21 11:43:10;;;;;;;21.95;15.75;;;24.30;62.00;;;;;;4957187;28;20573;-80
2021/06/21 11:45:53;;;;;;;20.95;16.88;;;24.40;61.70;;;;;;4956967;29;20345;-82
2021/06/21 11:48:26;;;;;;;15.98;14.27;;;24.40;62.00;;;;;;4958984;29;20161;-79
2021/06/21 11:50:53;;;;;;;20.90;16.80;;;24.30;61.60;;;;;;4958505;28;20173;-79
2021/06/21 11:53:19;;;;;;;16.98;15.13;;;24.30;62.30;;;;;;4957106;28;20169;-79
2021/06/21 11:55:45;;;;;;;17.98;15.52;;;24.20;62.20;;;;;;4957085;29;20166;-80
2021/06/21 11:58:11;;;;;;;21.48;16.02;;;24.20;62.50;;;;;;4958034;28;20165;-78
2021/06/21 12:00:38;;;;;;;19.63;15.18;;;24.30;61.90;;;;;;4956894;28;20640;-79
2021/06/21 12:03:10;;;;;;;16.83;14.20;;;24.30;61.60;;;;;;4958356;28;20162;-79
2021/06/21 12:05:36;;;;;;;18.35;14.90;;;24.40;61.30;;;;;;4914486;29;20209;-80
2021/06/21 12:08:13;;;;;;;20.17;16.50;;;24.40;61.30;;;;;;4964832;28;20153;-79
2021/06/21 12:10:39;;;;;;;16.95;14.98;;;24.40;61.40;;;;;;4964068;28;20150;-79
2021/06/21 12:13:05;;;;;;;19.75;15.52;;;24.40;61.20;;;;;;4965342;28;20181;-80
2021/06/21 12:15:33;;;;;;;16.45;14.43;;;24.40;61.30;;;;;;4961776;29;20173;-81
2021/06/21 12:18:03;;;;;;;17.05;14.07;;;24.40;61.30;;;;;;4960706;29;20644;-80
2021/06/21 12:20:33;;;;;;;17.88;15.88;;;24.50;60.90;;;;;;4960406;29;20192;-80
2021/06/21 12:23:04;;;;;;;18.35;15.07;;;24.50;60.90;;;;;;4943717;29;20196;-81
2021/06/21 12:25:33;;;;;;;19.08;14.57;;;24.50;60.80;;;;;;4963908;28;20649;-79
2021/06/21 12:28:14;;;;;;;16.85;14.75;;;24.40;61.10;;;;;;4963976;28;20225;-80
2021/06/21 12:30:50;;;;;;;17.20;14.68;;;24.40;61.20;;;;;;4963938;28;20157;-80
2021/06/21 12:33:34;;;;;;;17.50;14.20;;;24.40;61.40;;;;;;4913605;29;20185;-81
2021/06/21 12:36:06;;;;;;;16.13;14.40;;;24.40;61.00;;;;;;4962056;29;20169;-80
2021/06/21 12:38:32;;;;;;;15.45;13.85;;;24.40;61.20;;;;;;4963243;28;20169;-80
2021/06/21 12:40:58;;;;;;;15.02;13.48;;;24.40;60.70;;;;;;4962713;29;20169;-80